createdAt,value
2023-07-04T00:24:34.497Z,1016.4
2023-07-04T00:53:19.457Z,1016.5
2023-07-04T01:22:01.323Z,1016.67
2023-07-04T01:50:44.691Z,1016.49
2023-07-04T02:19:31.873Z,1016.47
2023-07-04T05:40:19.206Z,1017.01
2023-07-04T06:09:01.033Z,1017.03
2023-07-04T07:06:05.301Z,1017.31
2023-07-04T07:34:49.105Z,1017.46
2023-07-04T08:03:23.284Z,1017.4
2023-07-04T08:31:55.041Z,1017.25
2023-07-04T09:00:29.341Z,1017.24
2023-07-04T09:29:03.469Z,1017.16
2023-07-04T09:57:47.529Z,1017.05
2023-07-04T10:26:29.571Z,1016.97
2023-07-04T10:54:57.581Z,1016.69
2023-07-04T11:23:28.842Z,1016.5
2023-07-04T11:52:00.688Z,1016.25
2023-07-04T12:20:41.608Z,1015.97
2023-07-04T12:49:46.951Z,1015.82
2023-07-04T13:18:00.893Z,1015.46
2023-07-04T13:46:28.426Z,1015.4
2023-07-04T14:44:45.616Z,1015.1
2023-07-04T15:42:27.413Z,1015
2023-07-04T16:11:23.835Z,1015.03
2023-07-04T16:40:09.559Z,1014.97
2023-07-04T17:09:05.624Z,1014.75
2023-07-04T17:37:56.631Z,1014.64
2023-07-04T18:06:48.325Z,1014.53
2023-07-04T18:35:34.595Z,1014.3
2023-07-04T19:04:13.024Z,1014.1
2023-07-04T19:32:45.371Z,1014.17
2023-07-04T20:01:22.258Z,1014.11
2023-07-04T20:29:53.257Z,1014.04
2023-07-04T20:58:41.208Z,1013.8
2023-07-04T21:27:07.180Z,1013.45
2023-07-04T21:55:52.705Z,1013.27
2023-07-04T22:24:21.846Z,1013.41
2023-07-04T22:53:08.026Z,1013.36
2023-07-04T23:21:54.827Z,1013.34
2023-07-04T23:50:37.534Z,1013.14
